Argos, IN

6:01 PM EDT on August 21, 2014 (GMT -0400)
Bourbon, IN | Change Station
CLOSE
Current Station
Personal Weather Station
Location: Bourbon, IN
Elevation: 814 ft
Nearby Weather Stations

Elev 814 ft 41.27 °N, 86.15 °W | Updated 34 seconds ago

Scattered Clouds
Scattered Clouds
77.5 °F
Feels Like 79 °F
N
7.0
Wind Variable Wind from East
Gusts 8.0 mph

Today
High -- | Low -- °F
--% Chance of Precip.
Yesterday
High -- | Low -- °F
Precip. -- in
7:00 AM 8:35 PM
Waning Crescent, 12% visible
Pressure 29.98 in
Visibility 10.0 miles
Clouds Scattered Clouds 2000 ft
Scattered Clouds 2900 ft
Scattered Clouds 3900 ft
Heat Index 79 °F
Dew Point 75 °F
Humidity 92%
Rainfall 0.36 in
Snow Depth Not available.
UV 4 out of 12
Pollen 7.90 out of 12
Air Quality Not available.
Flu Activity Not available.
METAR KRCR 212115Z AUTO 09005KT 10SM SCT020 SCT029 SCT039 27/23 A2998 RMK AO2

More Conditions Fewer Conditions

Pressure 29.98 in
Visibility 10.0 miles
Clouds Scattered Clouds 2000 ft
Scattered Clouds 2900 ft
Scattered Clouds 3900 ft
Heat Index 79 °F
Dew Point 75 °F
Humidity 92%
Rainfall 0.36 in
Snow Depth Not available.
UV 4 out of 12
Pollen 7.90 out of 12
Air Quality Not available.
Flu Activity Not available.
METAR KRCR 212115Z AUTO 09005KT 10SM SCT020 SCT029 SCT039 27/23 A2998 RMK AO2

More Conditions Fewer Conditions

10-Day Weather Forecast

Almanac

Astronomy

Aug. 21, 2014 Rise Set
Actual Time 7:00 AM EDT 8:35 PM EDT
Civil Twilight 6:31 AM EDT 9:04 PM EDT
Nautical Twilight 5:56 AM EDT 9:39 PM EDT
Astronomical Twilight 5:18 AM EDT 10:16 PM EDT
Moon 3:29 AM EDT 6:04 PM EDT
Length of Visible Light 14h 32m
Length of Day
13h 34m
Tomorrow will be 2m 31s shorter.
Waning Crescent, 12% of the Moon is Illuminated
Today
Waning Crescent
Aug 25
New
Sep 2
First Quarter
Sep 8
Full
Sep 15
Last Quarter

Today's Extremes

State Highs State Lows

Community

WunderPhotos

Upload Photos

1,746,033 photos uploaded!

WunderBlogs® & News

Nearby

Snow Depth

Station Depth Elevation
No new snow has been reported.

Earthquake Activity

City Distance Mag. Time & Date
No recent earthquake activity has been reported nearby.
Minimum magnitude displayed is 2.5.

Coastal Water Temperatures

Place Temperature
No Stations Reporting

Nearby Weather Stations